Time;durP1;ratioP1;P1;durP2;ratioP2;P2;SDS_P1;SDS_P2;PMS_P1;PMS_P2;Temp;Humidity;BMP_temperature;BMP_pressure;BME280_temperature;BME280_humidity;BME280_pressure;Samples;Min_cycle;Max_cycle;Signal;HPM_P1;HPM_P2
2023/06/15 00:02:22;;;;;;;;;24.67;23.33;;;;;25.78;31.38;101270.47;5092512;27;66514;-48
2023/06/15 00:04:47;;;;;;;;;24.33;23.67;;;;;25.78;31.23;101266.91;5082980;27;64602;-50
2023/06/15 00:07:13;;;;;;;;;26.00;21.33;;;;;25.74;32.04;101275.41;5082764;27;46977;-50
2023/06/15 00:09:38;;;;;;;;;21.00;21.00;;;;;25.72;31.88;101273.84;5092020;27;45532;-47
2023/06/15 00:12:04;;;;;;;;;27.00;24.00;;;;;25.66;31.15;101274.53;5081654;27;52658;-49
2023/06/15 00:14:30;;;;;;;;;23.67;22.00;;;;;25.58;31.80;101273.47;5084272;27;45410;-50
2023/06/15 00:16:55;;;;;;;;;20.33;20.33;;;;;25.52;31.66;101274.13;5091543;27;46477;-49
2023/06/15 00:19:21;;;;;;;;;21.00;19.00;;;;;25.52;31.68;101276.00;5084154;27;45732;-48
2023/06/15 00:21:48;;;;;;;;;21.00;20.00;;;;;25.49;31.55;101271.75;5078418;27;45304;-48
2023/06/15 00:24:14;;;;;;;;;22.00;21.67;;;;;25.48;31.81;101280.06;5083720;27;45407;-51
2023/06/15 00:26:39;;;;;;;;;24.67;21.00;;;;;25.45;31.89;101273.09;5082540;27;47058;-50
2023/06/15 00:29:05;;;;;;;;;23.00;22.00;;;;;25.44;32.10;101282.25;5081185;27;45462;-49
2023/06/15 00:31:30;;;;;;;;;23.00;20.67;;;;;25.40;32.33;101284.44;5084138;27;45727;-49
2023/06/15 00:33:55;;;;;;;;;26.00;22.67;;;;;25.41;31.94;101285.31;5081397;27;45304;-49
2023/06/15 00:36:21;;;;;;;;;17.67;17.67;;;;;25.36;32.20;101280.34;5085443;27;62937;-51
2023/06/15 00:38:46;;;;;;;;;24.00;24.00;;;;;25.32;32.13;101281.66;5085113;27;45933;-50
2023/06/15 00:41:11;;;;;;;;;24.33;24.00;;;;;25.28;32.33;101285.72;5090625;27;45360;-48
2023/06/15 00:43:37;;;;;;;;;25.33;24.00;;;;;25.27;32.25;101287.59;5079697;27;61772;-49
2023/06/15 00:46:03;;;;;;;;;22.00;21.33;;;;;25.23;32.28;101282.66;5087541;27;46045;-50
2023/06/15 00:48:29;;;;;;;;;23.33;21.33;;;;;25.21;32.82;101290.97;5085386;27;45539;-49
2023/06/15 00:50:55;;;;;;;;;23.00;21.00;;;;;25.18;32.51;101290.44;5087425;27;45412;-51
2023/06/15 00:53:21;;;;;;;;;22.33;20.33;;;;;25.14;32.53;101292.63;5086529;27;45373;-51
2023/06/15 00:55:47;;;;;;;;;24.67;21.33;;;;;25.07;33.09;101289.69;5091915;27;45619;-50
2023/06/15 00:58:13;;;;;;;;;22.00;22.00;;;;;25.06;32.63;101289.84;5079515;27;45508;-51
2023/06/15 01:00:38;;;;;;;;;27.33;23.33;;;;;25.00;33.60;101290.50;5098242;27;56995;-48
2023/06/15 01:03:04;;;;;;;;;25.67;21.67;;;;;24.96;32.86;101287.22;5083248;27;45308;-47
2023/06/15 01:05:34;;;;;;;;;23.00;22.00;;;;;24.95;33.18;101285.50;5080111;27;45563;-50
2023/06/15 01:08:04;;;;;;;;;21.00;18.33;;;;;24.92;33.13;101289.41;5089217;27;45348;-50
2023/06/15 01:10:31;;;;;;;;;20.33;18.67;;;;;24.91;33.26;101285.00;5084533;27;45330;-50
2023/06/15 01:12:58;;;;;;;;;23.67;23.00;;;;;24.90;33.41;101285.13;5082961;27;46180;-47
2023/06/15 01:15:24;;;;;;;;;21.67;21.67;;;;;24.89;33.34;101286.19;5088192;27;45540;-51
2023/06/15 01:17:53;;;;;;;;;20.33;19.00;;;;;24.86;32.97;101287.34;5088706;27;45408;-51
2023/06/15 01:20:24;;;;;;;;;19.33;19.33;;;;;24.85;33.34;101285.63;5083406;27;45444;-48
2023/06/15 01:23:21;;;;;;;;;20.00;19.33;;;;;24.83;33.22;101286.81;5082403;27;45373;-50
2023/06/15 01:25:49;;;;;;;;;18.00;18.00;;;;;24.80;33.56;101287.97;5088789;27;47120;-51
2023/06/15 01:28:17;;;;;;;;;18.67;17.33;;;;;24.79;33.67;101288.13;5080244;27;45444;-48
2023/06/15 01:30:43;;;;;;;;;21.33;19.33;;;;;24.76;33.55;101286.59;5090415;27;45580;-48
2023/06/15 01:33:10;;;;;;;;;19.00;18.67;;;;;24.72;33.60;101294.19;5068892;27;45250;-48
2023/06/15 01:35:35;;;;;;;;;22.00;19.00;;;;;24.67;33.59;101290.25;5091699;27;46448;-51
2023/06/15 01:38:01;;;;;;;;;21.33;21.00;;;;;24.64;33.50;101287.84;5084630;27;45463;-52
2023/06/15 01:40:28;;;;;;;;;20.00;17.33;;;;;24.60;33.69;101281.81;5092410;27;45578;-48
2023/06/15 01:42:55;;;;;;;;;17.00;17.00;;;;;24.59;34.06;101289.13;5086222;27;46526;-49
2023/06/15 01:45:21;;;;;;;;;22.00;21.00;;;;;24.57;33.82;101290.31;5083819;27;46363;-50
2023/06/15 01:47:48;;;;;;;;;21.00;21.00;;;;;24.53;33.86;101289.75;5095599;27;45449;-50
2023/06/15 01:50:15;;;;;;;;;24.00;21.33;;;;;24.52;33.59;101288.06;5093901;27;45371;-51
2023/06/15 01:52:40;;;;;;;;;16.67;15.67;;;;;24.49;33.48;101288.34;5093089;27;45565;-48
2023/06/15 01:55:07;;;;;;;;;18.00;18.00;;;;;24.47;33.83;101293.13;5084305;27;46988;-50
2023/06/15 01:57:39;;;;;;;;;18.00;17.00;;;;;24.44;33.86;101290.69;5084360;27;45623;-48
2023/06/15 02:00:07;;;;;;;;;20.33;17.67;;;;;24.43;33.65;101292.56;5088113;27;45279;-50
2023/06/15 02:02:33;;;;;;;;;15.67;15.67;;;;;24.41;33.99;101282.88;5083029;27;45389;-50
2023/06/15 02:04:58;;;;;;;;;17.67;15.67;;;;;24.39;34.26;101287.59;5088809;27;68947;-49
2023/06/15 02:07:24;;;;;;;;;19.00;19.00;;;;;24.37;34.43;101295.06;5086614;27;45463;-49
2023/06/15 02:09:49;;;;;;;;;21.00;21.00;;;;;24.35;34.03;101284.31;5085741;27;45527;-47
2023/06/15 02:12:15;;;;;;;;;18.33;18.33;;;;;24.33;34.70;101286.34;5089187;27;45462;-48
2023/06/15 02:14:40;;;;;;;;;20.00;18.67;;;;;24.30;34.26;101288.53;5092068;27;46139;-47
2023/06/15 02:17:06;;;;;;;;;19.00;19.00;;;;;24.27;34.32;101292.41;5082415;27;66397;-48
2023/06/15 02:19:31;;;;;;;;;18.67;18.00;;;;;24.26;34.51;101297.00;5083581;27;45410;-47
2023/06/15 02:21:57;;;;;;;;;19.00;17.00;;;;;24.27;34.78;101285.13;5077944;27;45323;-47
2023/06/15 02:24:23;;;;;;;;;17.67;17.33;;;;;24.26;34.63;101286.13;5082599;27;75690;-48
2023/06/15 02:26:48;;;;;;;;;19.67;19.00;;;;;24.24;35.11;101296.28;5087761;27;45440;-47
2023/06/15 02:29:14;;;;;;;;;20.33;18.67;;;;;24.20;35.05;101294.03;5086026;27;45275;-47
2023/06/15 02:31:39;;;;;;;;;18.67;17.67;;;;;24.18;35.17;101290.63;5088158;27;45322;-49
2023/06/15 02:34:05;;;;;;;;;20.33;18.67;;;;;24.14;35.02;101291.94;5086582;27;46053;-49
2023/06/15 02:36:31;;;;;;;;;16.67;16.33;;;;;24.08;35.41;101290.69;5086802;27;45656;-48
2023/06/15 02:38:58;;;;;;;;;20.67;19.00;;;;;24.03;35.46;101288.44;5092682;27;45827;-48
2023/06/15 02:41:23;;;;;;;;;19.67;18.67;;;;;23.99;35.92;101287.03;5087322;27;45389;-50
2023/06/15 02:43:49;;;;;;;;;27.67;26.33;;;;;23.93;36.31;101293.91;5089648;27;73185;-47
2023/06/15 02:46:14;;;;;;;;;32.00;27.00;;;;;23.88;36.86;101298.91;5081632;27;45579;-49
2023/06/15 02:48:40;;;;;;;;;25.33;25.33;;;;;23.81;37.32;101292.41;5084537;27;45703;-51
2023/06/15 02:51:06;;;;;;;;;31.33;27.67;;;;;23.78;37.70;101285.41;5084555;27;45523;-50
2023/06/15 02:53:31;;;;;;;;;32.00;29.00;;;;;23.75;38.23;101293.88;5086296;27;45417;-52
2023/06/15 02:55:57;;;;;;;;;33.00;30.67;;;;;23.69;38.63;101294.47;5086708;27;52646;-47
2023/06/15 02:58:24;;;;;;;;;37.33;32.00;;;;;23.64;38.88;101288.63;5083342;27;45514;-47
2023/06/15 03:00:51;;;;;;;;;29.00;29.00;;;;;23.61;39.10;101297.09;5086766;27;45438;-49
2023/06/15 03:03:27;;;;;;;;;33.33;30.33;;;;;23.57;39.19;101295.66;5090970;27;48186;-47
2023/06/15 03:05:54;;;;;;;;;31.00;30.00;;;;;23.53;39.57;101305.09;5079538;27;45414;-47
2023/06/15 03:08:20;;;;;;;;;28.67;28.67;;;;;23.47;39.59;101298.44;5081985;27;45424;-50
2023/06/15 03:10:45;;;;;;;;;32.67;31.00;;;;;23.43;39.78;101300.56;5097093;27;45429;-50
2023/06/15 03:13:11;;;;;;;;;39.33;32.33;;;;;23.39;39.71;101301.88;5088054;27;57824;-47
2023/06/15 03:15:37;;;;;;;;;31.00;29.67;;;;;23.37;39.88;101301.16;5089731;27;45452;-50
2023/06/15 03:18:04;;;;;;;;;36.33;32.00;;;;;23.31;40.24;101299.06;5080331;27;45429;-48
2023/06/15 03:20:32;;;;;;;;;34.00;30.00;;;;;23.31;40.23;101306.34;5086299;27;45325;-48
2023/06/15 03:22:58;;;;;;;;;35.67;30.33;;;;;23.28;40.32;101302.06;5083268;27;47465;-47
2023/06/15 03:25:23;;;;;;;;;33.33;31.67;;;;;23.26;40.67;101304.94;5081467;27;45534;-50
2023/06/15 03:27:48;;;;;;;;;33.00;31.00;;;;;23.24;40.86;101304.19;5082135;27;45331;-47
2023/06/15 03:30:14;;;;;;;;;39.33;33.67;;;;;23.21;40.86;101304.50;5078845;27;48710;-48
2023/06/15 03:32:40;;;;;;;;;33.00;31.00;;;;;23.20;40.78;101312.81;5079957;27;45421;-50
2023/06/15 03:35:07;;;;;;;;;35.67;31.67;;;;;23.18;40.76;101302.09;5094511;27;45667;-49
2023/06/15 03:37:32;;;;;;;;;33.33;30.67;;;;;23.17;41.03;101313.13;5081715;27;45290;-49
2023/06/15 03:39:58;;;;;;;;;33.33;30.33;;;;;23.16;40.98;101312.25;5090370;27;45482;-49
2023/06/15 03:42:23;;;;;;;;;22.33;20.00;;;;;23.14;41.11;101314.25;5089758;27;46556;-49
2023/06/15 03:44:48;;;;;;;;;37.67;31.00;;;;;23.11;41.33;101309.94;5081564;27;61210;-47
2023/06/15 03:47:14;;;;;;;;;35.67;32.33;;;;;23.09;41.30;101313.81;5077938;27;55557;-50
2023/06/15 03:49:39;;;;;;;;;36.33;32.67;;;;;23.07;41.22;101315.81;5087034;27;45472;-47
2023/06/15 03:52:05;;;;;;;;;32.67;30.00;;;;;23.05;41.73;101323.22;5083113;27;54382;-50
2023/06/15 03:54:32;;;;;;;;;37.00;31.33;;;;;23.05;41.60;101315.06;5084047;27;45640;-48
2023/06/15 03:56:57;;;;;;;;;30.33;30.00;;;;;23.04;41.60;101316.94;5087834;27;45333;-49
2023/06/15 03:59:23;;;;;;;;;33.67;31.33;;;;;23.01;42.18;101319.97;5076603;27;59396;-48
2023/06/15 04:01:49;;;;;;;;;38.67;35.00;;;;;22.96;41.89;101314.97;5084609;27;47251;-47
2023/06/15 04:04:15;;;;;;;;;35.00;31.33;;;;;22.94;42.54;101324.25;5084148;27;45466;-50
2023/06/15 04:06:45;;;;;;;;;34.33;32.00;;;;;22.93;42.61;101326.13;5095950;27;46331;-47
2023/06/15 04:09:11;;;;;;;;;35.67;32.00;;;;;22.90;42.89;101325.53;5078793;27;45493;-47
2023/06/15 04:11:36;;;;;;;;;38.33;32.67;;;;;22.88;42.76;101317.56;5096928;27;46835;-47
2023/06/15 04:14:02;;;;;;;;;33.67;31.33;;;;;22.87;42.53;101323.97;5078830;27;68110;-48
2023/06/15 04:16:27;;;;;;;;;38.33;32.00;;;;;22.87;42.54;101318.53;5082861;27;45487;-49
2023/06/15 04:18:53;;;;;;;;;35.67;33.33;;;;;22.87;43.21;101323.97;5080065;27;68043;-50
2023/06/15 04:21:18;;;;;;;;;33.33;32.33;;;;;22.88;43.12;101327.53;5081993;27;45997;-50
2023/06/15 04:23:43;;;;;;;;;34.33;31.67;;;;;22.88;42.75;101327.53;5081252;27;45341;-48
2023/06/15 04:26:09;;;;;;;;;39.33;33.33;;;;;22.93;43.22;101336.97;5083493;27;56722;-47
2023/06/15 04:28:35;;;;;;;;;38.00;33.67;;;;;22.95;43.34;101340.38;5078450;27;45466;-50
2023/06/15 04:31:09;;;;;;;;;27.67;27.33;;;;;22.98;43.23;101336.50;5084450;27;45532;-47
2023/06/15 04:33:36;;;;;;;;;40.00;34.33;;;;;22.99;42.90;101326.53;5080534;27;46051;-46
2023/06/15 04:36:03;;;;;;;;;36.00;33.00;;;;;23.01;43.33;101338.06;5082160;27;46886;-48
2023/06/15 04:38:29;;;;;;;;;39.00;32.33;;;;;23.02;43.30;101339.78;5098908;27;45591;-50
2023/06/15 04:40:56;;;;;;;;;39.00;34.33;;;;;23.06;43.64;101341.22;5079900;27;45994;-49
2023/06/15 04:43:21;;;;;;;;;36.33;32.67;;;;;23.10;43.89;101339.91;5087588;27;46133;-47
2023/06/15 04:45:47;;;;;;;;;39.33;33.67;;;;;23.13;43.23;101343.19;5078384;27;45779;-50
2023/06/15 04:48:12;;;;;;;;;35.67;33.33;;;;;23.19;43.88;101344.50;5078135;27;45615;-49
2023/06/15 04:50:37;;;;;;;;;40.67;32.67;;;;;23.25;43.74;101353.91;5079756;27;71808;-49
2023/06/15 04:53:02;;;;;;;;;40.33;33.00;;;;;23.28;43.44;101349.06;5085464;27;67732;-50
2023/06/15 04:55:28;;;;;;;;;32.67;31.00;;;;;23.31;43.11;101350.63;5081124;27;65168;-48
2023/06/15 04:57:53;;;;;;;;;40.67;35.67;;;;;23.36;43.42;101345.63;5094012;27;68537;-47
2023/06/15 05:00:19;;;;;;;;;38.67;34.67;;;;;23.42;43.44;101346.88;5100406;27;70756;-47
2023/06/15 05:02:45;;;;;;;;;36.33;32.33;;;;;23.48;43.18;101349.00;5094724;27;45323;-50
2023/06/15 05:05:11;;;;;;;;;37.67;32.33;;;;;23.53;42.89;101351.25;5081666;27;45479;-49
2023/06/15 05:07:36;;;;;;;;;38.33;33.33;;;;;23.57;43.16;101356.25;5088354;27;45496;-50
2023/06/15 05:10:03;;;;;;;;;37.33;32.67;;;;;23.62;43.28;101353.94;5092562;27;45412;-47
2023/06/15 05:12:28;;;;;;;;;39.00;31.67;;;;;23.70;42.83;101355.03;5094573;27;45499;-48
2023/06/15 05:14:54;;;;;;;;;30.33;29.67;;;;;23.75;42.88;101359.03;5081165;27;45353;-49
2023/06/15 05:17:19;;;;;;;;;37.67;32.00;;;;;23.79;43.06;101356.84;5090121;27;64450;-50
2023/06/15 05:19:45;;;;;;;;;37.00;32.67;;;;;23.84;42.57;101357.25;5089099;27;45842;-48
2023/06/15 05:22:10;;;;;;;;;38.67;33.00;;;;;23.88;42.49;101353.22;5088551;27;45357;-49
2023/06/15 05:24:36;;;;;;;;;34.67;32.67;;;;;23.93;42.39;101363.69;5084582;27;48826;-48
2023/06/15 05:27:02;;;;;;;;;41.67;35.00;;;;;24.00;42.18;101361.22;5078497;27;63310;-50
2023/06/15 05:29:28;;;;;;;;;35.00;32.00;;;;;24.05;42.09;101356.19;5093344;27;46391;-51
2023/06/15 05:31:55;;;;;;;;;35.67;30.33;;;;;24.10;41.81;101356.59;5090704;27;46163;-50
2023/06/15 05:34:21;;;;;;;;;37.67;32.00;;;;;24.13;41.58;101367.16;5082990;27;45550;-50
2023/06/15 05:36:46;;;;;;;;;39.00;33.00;;;;;24.18;41.52;101361.25;5085806;27;45551;-48
2023/06/15 05:39:11;;;;;;;;;34.00;32.33;;;;;24.22;41.41;101368.97;5083022;27;60056;-50
2023/06/15 05:41:37;;;;;;;;;21.00;18.67;;;;;24.28;41.54;101368.34;5084705;27;45531;-48
2023/06/15 05:44:02;;;;;;;;;35.33;32.33;;;;;24.40;41.28;101368.13;5087875;27;45546;-47
2023/06/15 05:46:28;;;;;;;;;33.33;31.00;;;;;24.59;40.83;101373.41;5085854;27;45990;-50
2023/06/15 05:48:53;;;;;;;;;33.67;32.00;;;;;24.81;40.02;101370.41;5086778;27;46139;-47
2023/06/15 05:51:18;;;;;;;;;34.67;30.00;;;;;24.91;39.48;101376.63;5085080;27;68452;-48
2023/06/15 05:53:44;;;;;;;;;34.67;30.33;;;;;24.98;39.80;101375.00;5084449;27;64892;-51
2023/06/15 05:56:10;;;;;;;;;27.00;25.67;;;;;25.04;39.26;101382.50;5088253;27;45669;-48
2023/06/15 05:58:37;;;;;;;;;24.00;22.33;;;;;25.09;38.83;101379.31;5090438;27;64049;-47
2023/06/15 06:01:03;;;;;;;;;28.00;26.00;;;;;25.12;39.10;101379.00;5086947;27;45663;-48
2023/06/15 06:03:28;;;;;;;;;23.33;21.33;;;;;25.15;37.63;101384.13;5090780;27;45520;-48
2023/06/15 06:05:54;;;;;;;;;19.00;17.33;;;;;25.17;37.63;101383.97;5077751;27;45535;-48
2023/06/15 06:08:21;;;;;;;;;26.00;19.67;;;;;25.20;37.74;101379.06;5079664;27;55860;-48
2023/06/15 06:10:46;;;;;;;;;19.33;18.00;;;;;25.29;37.34;101384.56;5082683;27;45326;-48
2023/06/15 06:13:11;;;;;;;;;17.67;16.33;;;;;25.37;36.48;101387.38;5087493;27;45939;-49
2023/06/15 06:15:37;;;;;;;;;16.67;14.67;;;;;25.39;36.67;101390.78;5084264;27;45484;-50
2023/06/15 06:18:04;;;;;;;;;18.00;17.00;;;;;25.45;36.21;101387.44;5075926;27;60998;-51
2023/06/15 06:20:31;;;;;;;;;17.67;15.67;;;;;25.55;35.84;101382.75;5085314;27;45476;-48
2023/06/15 06:22:56;;;;;;;;;15.00;13.00;;;;;25.60;35.03;101390.41;5083544;27;45511;-48
2023/06/15 06:25:21;;;;;;;;;15.00;13.00;;;;;25.63;35.31;101391.94;5081477;27;45429;-51
2023/06/15 06:27:47;;;;;;;;;14.00;12.00;;;;;25.76;35.62;101392.34;5077313;27;71698;-48
2023/06/15 06:30:12;;;;;;;;;14.67;14.67;;;;;25.93;34.83;101399.59;5086939;27;70494;-50
2023/06/15 06:32:37;;;;;;;;;11.67;11.67;;;;;26.13;34.70;101395.81;5079821;27;50424;-49
2023/06/15 06:35:03;;;;;;;;;14.33;14.33;;;;;26.35;34.55;101392.47;5081098;27;45740;-49
2023/06/15 06:37:28;;;;;;;;;14.00;14.00;;;;;26.93;33.78;101395.28;5090864;27;45538;-51
2023/06/15 06:39:54;;;;;;;;;13.00;13.00;;;;;27.77;33.80;101392.28;5084060;27;70726;-49
2023/06/15 06:42:19;;;;;;;;;15.33;13.33;;;;;28.57;32.68;101395.00;5086424;27;57246;-50
2023/06/15 06:44:44;;;;;;;;;12.33;11.33;;;;;29.63;31.40;101403.34;5087869;27;66514;-57
2023/06/15 06:47:10;;;;;;;;;13.33;12.67;;;;;30.83;30.58;101402.09;5088285;27;46824;-57
2023/06/15 06:49:35;;;;;;;;;14.33;14.00;;;;;31.97;29.98;101402.94;5093559;27;45476;-56
2023/06/15 06:52:01;;;;;;;;;9.33;7.67;;;;;32.86;28.28;101399.44;5085853;27;45919;-57
2023/06/15 06:54:26;;;;;;;;;11.67;11.67;;;;;33.54;26.74;101407.44;5084893;27;57142;-57
2023/06/15 06:56:51;;;;;;;;;12.00;12.00;;;;;34.06;26.02;101404.78;5091145;27;61188;-59
2023/06/15 06:59:17;;;;;;;;;10.33;9.00;;;;;34.57;25.80;101407.72;5083569;27;67061;-57
2023/06/15 07:01:43;;;;;;;;;13.00;11.67;;;;;35.19;24.99;101416.19;5083684;27;67471;-58
2023/06/15 07:04:09;;;;;;;;;11.67;11.00;;;;;36.08;24.95;101412.31;5078420;27;45520;-57
2023/06/15 07:06:34;;;;;;;;;14.33;13.33;;;;;36.80;23.61;101418.97;5079252;27;46453;-57
2023/06/15 07:08:59;;;;;;;;;15.00;11.00;;;;;37.34;22.83;101413.41;5079400;27;53321;-57
2023/06/15 07:11:26;;;;;;;;;14.33;12.67;;;;;38.01;22.68;101412.97;5078045;27;66646;-58
2023/06/15 07:13:51;;;;;;;;;13.67;13.67;;;;;38.67;22.35;101423.72;5078917;27;45540;-57
2023/06/15 07:16:17;;;;;;;;;12.00;12.00;;;;;38.94;22.12;101425.84;5078905;27;45359;-57
2023/06/15 07:18:42;;;;;;;;;11.67;11.00;;;;;38.81;21.22;101427.00;5078537;27;67117;-58
2023/06/15 07:21:07;;;;;;;;;14.00;14.00;;;;;39.08;21.40;101431.91;5089736;27;45729;-58
2023/06/15 07:23:33;;;;;;;;;10.33;10.33;;;;;39.21;20.79;101426.03;5078497;27;66046;-57
2023/06/15 07:25:58;;;;;;;;;9.00;9.00;;;;;39.31;20.05;101433.72;5078793;27;45660;-57
2023/06/15 07:28:23;;;;;;;;;9.67;9.67;;;;;39.72;20.45;101429.84;5079184;27;45542;-57
2023/06/15 07:30:49;;;;;;;;;9.33;9.33;;;;;40.32;19.56;101428.09;5079347;27;45527;-57
2023/06/15 07:33:15;;;;;;;;;11.67;11.67;;;;;41.11;18.67;101435.00;5078657;27;45323;-57
2023/06/15 07:35:41;;;;;;;;;9.67;9.67;;;;;41.88;18.61;101437.47;5084832;27;45589;-57
2023/06/15 07:38:07;;;;;;;;;11.00;10.33;;;;;42.42;17.59;101432.59;5079624;27;45568;-58
2023/06/15 07:40:32;;;;;;;;;9.67;9.67;;;;;42.86;16.09;101440.50;5080154;27;45354;-58
2023/06/15 07:42:57;;;;;;;;;13.67;12.33;;;;;43.01;16.51;101441.59;5083532;27;45363;-58
2023/06/15 07:45:23;;;;;;;;;12.33;11.00;;;;;43.54;16.94;101441.31;5086404;27;69451;-57
2023/06/15 07:47:48;;;;;;;;;9.67;7.33;;;;;44.24;16.75;101438.47;5086966;27;61117;-58
2023/06/15 07:50:13;;;;;;;;;14.67;10.67;;;;;45.00;15.26;101446.63;5087669;27;46768;-58
2023/06/15 07:52:39;;;;;;;;;9.00;8.00;;;;;45.68;14.97;101447.66;5079637;27;45678;-58
2023/06/15 07:55:06;;;;;;;;;9.00;9.00;;;;;46.30;15.17;101446.03;5094224;27;74361;-58
2023/06/15 07:57:31;;;;;;;;;9.33;9.33;;;;;46.74;13.68;101444.78;5094959;27;45707;-58
2023/06/15 07:59:58;;;;;;;;;12.67;11.33;;;;;47.12;14.13;101441.06;5084893;27;61838;-58
2023/06/15 08:02:23;;;;;;;;;11.00;11.00;;;;;47.41;13.73;101443.59;5080616;27;46244;-58
2023/06/15 08:04:48;;;;;;;;;11.00;9.00;;;;;47.62;13.22;101448.84;5076449;28;60884;-58
2023/06/15 08:07:14;;;;;;;;;10.33;10.33;;;;;47.84;12.95;101446.13;5089501;27;66657;-58
2023/06/15 08:09:39;;;;;;;;;9.67;9.00;;;;;48.07;12.46;101449.00;5094797;27;44831;-58
2023/06/15 08:12:05;;;;;;;;;10.33;10.33;;;;;47.99;12.75;101453.41;5092281;27;65943;-58
2023/06/15 08:14:30;;;;;;;;;9.00;9.00;;;;;47.91;12.45;101454.16;5090206;27;47395;-58
2023/06/15 08:16:56;;;;;;;;;9.00;8.00;;;;;47.86;12.29;101451.44;5088537;27;67243;-58
2023/06/15 08:19:21;;;;;;;;;10.33;9.33;;;;;47.63;12.58;101450.50;5095898;27;45330;-58
2023/06/15 08:21:46;;;;;;;;;11.00;10.00;;;;;47.58;12.62;101457.09;5093362;27;46489;-58
2023/06/15 08:24:12;;;;;;;;;11.67;10.00;;;;;47.67;12.25;101451.56;5083835;27;70150;-58
2023/06/15 08:26:38;;;;;;;;;8.67;8.67;;;;;47.63;12.32;101453.31;5081665;27;45565;-58
2023/06/15 08:29:03;;;;;;;;;9.00;9.00;;;;;47.91;12.34;101456.16;5081072;27;45302;-58
2023/06/15 08:31:30;;;;;;;;;8.67;8.67;;;;;48.40;12.39;101457.31;5093479;27;45714;-58
2023/06/15 08:33:55;;;;;;;;;10.00;8.67;;;;;48.66;11.55;101456.72;5103585;27;45694;-58
2023/06/15 08:36:20;;;;;;;;;8.67;8.67;;;;;48.90;11.70;101458.34;5093064;27;45859;-58
2023/06/15 08:38:46;;;;;;;;;8.00;8.00;;;;;49.06;11.24;101459.63;5091834;27;58180;-58
2023/06/15 08:41:11;;;;;;;;;8.00;8.00;;;;;49.06;11.18;101459.63;5094417;27;65207;-58
2023/06/15 08:43:37;;;;;;;;;8.00;7.00;;;;;49.26;10.09;101452.59;5095959;27;47278;-58
2023/06/15 08:46:03;;;;;;;;;6.33;6.33;;;;;49.67;9.99;101459.94;5094393;27;65966;-58
2023/06/15 08:48:31;;;;;;;;;7.00;7.00;;;;;49.98;11.34;101461.84;5092424;27;45436;-61
2023/06/15 08:50:56;;;;;;;;;7.00;7.00;;;;;50.74;10.83;101468.22;5087366;27;45429;-58
2023/06/15 08:53:22;;;;;;;;;7.00;7.00;;;;;51.24;9.66;101460.28;5081057;27;58309;-59
2023/06/15 08:55:48;;;;;;;;;7.67;7.67;;;;;51.74;9.20;101453.91;5083385;27;45310;-58
2023/06/15 08:58:14;;;;;;;;;4.67;4.67;;;;;52.41;9.48;101453.25;5097505;27;45481;-58
2023/06/15 09:00:39;;;;;;;;;9.00;8.00;;;;;53.23;8.76;101457.44;5070202;27;45833;-59
2023/06/15 09:03:07;;;;;;;;;10.00;9.00;;;;;54.29;8.83;101453.88;5086658;27;71905;-58
2023/06/15 09:05:32;;;;;;;;;9.00;7.67;;;;;55.23;7.70;101463.00;5098308;27;45982;-58
2023/06/15 09:08:00;;;;;;;;;9.33;8.67;;;;;56.06;7.38;101461.34;5092118;27;45524;-59
2023/06/15 09:10:25;;;;;;;;;3.67;3.67;;;;;56.78;7.32;101459.94;5097583;27;45358;-59
2023/06/15 09:12:52;;;;;;;;;9.67;8.33;;;;;57.35;6.81;101453.63;5089336;27;46689;-59
2023/06/15 09:15:20;;;;;;;;;8.33;8.33;;;;;57.94;6.61;101459.81;5086022;27;45501;-58
2023/06/15 09:17:49;;;;;;;;;6.33;6.33;;;;;58.12;5.81;101451.44;5090489;27;45484;-58
2023/06/15 09:20:17;;;;;;;;;7.33;7.33;;;;;58.31;5.70;101449.63;5097876;27;45565;-58
2023/06/15 09:22:43;;;;;;;;;7.00;7.00;;;;;58.93;6.73;101455.63;5098388;27;45551;-59
2023/06/15 09:25:12;;;;;;;;;9.00;9.00;;;;;59.67;6.25;101457.84;5094984;27;45769;-59
2023/06/15 09:27:37;;;;;;;;;8.00;8.00;;;;;60.33;5.25;101456.88;5090994;27;45499;-58
2023/06/15 09:30:07;;;;;;;;;8.67;8.33;;;;;60.50;4.98;101461.88;5094986;27;66346;-59
2023/06/15 09:32:32;;;;;;;;;8.00;8.00;;;;;60.62;5.02;101454.94;5089399;27;46145;-59
2023/06/15 09:34:58;;;;;;;;;9.00;9.00;;;;;61.02;5.11;101464.44;5085186;27;45458;-56
2023/06/15 09:37:25;;;;;;;;;9.00;8.00;;;;;61.25;4.43;101468.13;5099167;27;45433;-56
2023/06/15 09:39:52;;;;;;;;;7.00;7.00;;;;;60.92;4.64;101465.22;5084257;27;45451;-59
2023/06/15 09:42:18;;;;;;;;;8.00;7.33;;;;;60.85;4.93;101463.16;5098366;27;45417;-59
2023/06/15 09:44:43;;;;;;;;;6.67;6.67;;;;;60.65;4.70;101459.06;5087046;27;45425;-59
2023/06/15 09:47:17;;;;;;;;;8.33;7.33;;;;;60.01;4.37;101461.28;5082359;27;56250;-56
2023/06/15 09:49:44;;;;;;;;;7.67;7.67;;;;;60.12;5.27;101454.78;5092780;27;45451;-58
2023/06/15 09:52:13;;;;;;;;;10.00;8.67;;;;;60.72;4.51;101450.44;5098451;27;45661;-57
2023/06/15 09:54:39;;;;;;;;;8.67;8.00;;;;;61.26;4.42;101456.22;5086430;27;45940;-57
2023/06/15 09:57:05;;;;;;;;;7.00;6.67;;;;;61.18;4.38;101454.53;5101949;27;45388;-57
2023/06/15 09:59:30;;;;;;;;;7.33;7.33;;;;;61.25;4.19;101451.69;5097078;27;45628;-58
2023/06/15 10:01:56;;;;;;;;;7.00;7.00;;;;;61.52;3.70;101460.69;5098283;27;69678;-58
2023/06/15 10:04:24;;;;;;;;;8.33;8.33;;;;;61.29;4.81;101454.56;5085056;27;45460;-57
2023/06/15 10:06:52;;;;;;;;;7.00;7.00;;;;;60.32;3.81;101463.84;5081103;27;45335;-57
2023/06/15 10:09:23;;;;;;;;;8.00;8.00;;;;;59.14;4.20;101456.19;5095812;27;45352;-57
2023/06/15 10:11:50;;;;;;;;;8.00;8.00;;;;;58.85;4.76;101447.38;5091668;27;46386;-57
2023/06/15 10:14:23;;;;;;;;;9.33;9.33;;;;;59.88;4.32;101452.22;5084247;27;50775;-57
2023/06/15 10:16:53;;;;;;;;;6.67;6.67;;;;;60.51;4.45;101454.09;5099416;27;45410;-58
2023/06/15 10:19:21;;;;;;;;;8.00;7.67;;;;;60.56;4.43;101447.94;5096574;27;45433;-57
2023/06/15 10:21:47;;;;;;;;;10.67;10.00;;;;;61.13;4.34;101450.03;5096894;27;46453;-58
2023/06/15 10:24:14;;;;;;;;;10.00;10.00;;;;;61.76;4.34;101454.44;5086704;27;70753;-58
2023/06/15 10:26:40;;;;;;;;;6.67;6.67;;;;;62.09;3.96;101464.59;5109944;27;45797;-58
2023/06/15 10:29:12;;;;;;;;;8.33;7.00;;;;;62.65;3.31;101460.97;5091260;27;45524;-57
2023/06/15 10:31:43;;;;;;;;;8.00;7.33;;;;;63.13;3.38;101462.25;5081992;27;45708;-57
2023/06/15 10:34:13;;;;;;;;;8.67;6.67;;;;;63.40;3.30;101465.28;5088564;27;45401;-58
2023/06/15 10:36:50;;;;;;;;;10.33;10.33;;;;;63.96;3.11;101465.03;5094832;27;45403;-57
2023/06/15 10:39:33;;;;;;;;;13.33;13.33;;;;;63.98;2.92;101459.66;5096501;27;45497;-57
2023/06/15 10:41:58;;;;;;;;;18.33;18.33;;;;;64.22;2.92;101456.88;5107653;27;46306;-58
2023/06/15 10:44:31;;;;;;;;;16.67;16.00;;;;;64.66;3.05;101459.91;5084483;27;45491;-58
2023/06/15 10:47:13;;;;;;;;;10.00;10.00;;;;;64.96;2.31;101452.41;5097146;27;45515;-58
2023/06/15 10:49:50;;;;;;;;;9.00;9.00;;;;;64.39;2.82;101462.81;5107581;27;45534;-58
2023/06/15 10:52:15;;;;;;;;;10.67;9.67;;;;;63.45;3.40;101450.41;5096751;27;45732;-58
2023/06/15 10:54:41;;;;;;;;;12.00;10.67;;;;;63.32;2.71;101453.00;5082904;27;45759;-58
2023/06/15 10:57:07;;;;;;;;;8.67;8.00;;;;;63.30;3.13;101443.97;5078169;27;62799;-57
2023/06/15 10:59:41;;;;;;;;;10.67;9.67;;;;;63.29;2.91;101450.16;5084062;27;60402;-58
2023/06/15 11:02:28;;;;;;;;;14.67;9.67;;;;;62.92;2.80;101440.22;5091078;27;46100;-57
2023/06/15 11:05:04;;;;;;;;;10.00;10.00;;;;;61.86;2.92;101445.81;5087687;27;45493;-57
2023/06/15 11:07:33;;;;;;;;;10.00;10.00;;;;;60.92;4.19;101433.63;5095556;27;45325;-57
2023/06/15 11:10:21;;;;;;;;;12.00;10.00;;;;;60.71;3.64;101434.44;5088024;27;45333;-57
2023/06/15 11:12:51;;;;;;;;;10.33;10.33;;;;;60.36;4.27;101436.84;5090444;27;46693;-57